Pagrindinis puslapis
METAR-TAF:

METAR-TAF

Oro uostai :

Ningbo, Kinija

platuma: 29-49-36N, ilguma: 121-27-43E, Aukštis: 4 m

Dabartinis oras

Ataskaita buvo paskelbta 10 minutes, ne 21:00 UTC
Vėjas 4 kt iš Šiaurės/Šiaurės Vakarų, svyruoja nuo Šiaurės Vakarų ir Šiaurės
Temperatūra 8°C
Drėgmė 87%
Slėgis 1024 hPa
Matomumas: 6000 m
Mažai debesys ne aukštis 900 ft
Su prošvaistėmis ne aukštis 1600 ft
Apsiniaukę ne aukštis 4000 ft

METAR: ZSNB 262100Z 34002MPS 310V010 6000 FEW009 BKN016 OVC040 08/06 Q1024 NOSIG

Laikas: 05:10 (21:10 UTC)

Prognozė

Ataskaita buvo paskelbta 6 valandos ir 4 minutes, ne 15:06 UTC
Prognozė galioja nuo 26 metu 18 UTC su 27 metu 18 UTC
Vėjas 8 kt iš Šiaurės/Šiaurės Vakarų
Matomumas: 3000 m
Mažai debesys ne aukštis 1000 ft
Su prošvaistėmis ne aukštis 2000 ft
rūkana
Laikinai
nuo 26 metu 18 UTC su 26 metu 24 UTC
Matomumas: 2000 m

TAF: ZSNB 261506Z 2618/2718 34004MPS 3000 BR FEW010 BKN020 TX11/2706Z TN08/2622Z TEMPO 2618/2624 2000

Orai ataskaitas ir orų prognozės (METAR, TAF).

turimą stotys yra geltonos ir raudonos taškus žemėlapyje.

Perkelti pele per norėdami pamatyti stoties vardą.

Tada spustelėkite, norėdami matyti oro stebėjimo ir prognozės.

Norėdami pakeisti žemėlapį: spustelėkite ant žalios mygtukų su juodo kryžiaus žemyn,; žalią mygtuką su brūkšneliu, jei norite nutolinti; arba žalių rodyklių gretimoms žemėlapius.


METAR-TAF: